Time;durP1;ratioP1;P1;durP2;ratioP2;P2;SDS_P1;SDS_P2;PMS_P1;PMS_P2;Temp;Humidity;BMP_temperature;BMP_pressure;BME280_temperature;BME280_humidity;BME280_pressure;Samples;Min_cycle;Max_cycle;Signal;HPM_P1;HPM_P2
2022/09/27 00:02:21;;;;;;;7.32;2.42;;;;;;;9.40;100.00;99648.50;5011139;28;20750;-81
2022/09/27 00:04:47;;;;;;;8.18;2.20;;;;;;;9.39;100.00;99651.25;5011420;28;20049;-81
2022/09/27 00:07:12;;;;;;;5.25;2.03;;;;;;;9.37;100.00;99646.16;5010001;28;20076;-81
2022/09/27 00:09:38;;;;;;;9.13;2.47;;;;;;;9.36;100.00;99644.50;5013051;28;20022;-81
2022/09/27 00:12:06;;;;;;;6.85;2.22;;;;;;;9.38;100.00;99660.09;5025844;28;20038;-81
2022/09/27 00:14:31;;;;;;;7.32;2.08;;;;;;;9.36;100.00;99647.13;5030484;28;20021;-82
2022/09/27 00:16:57;;;;;;;9.18;2.15;;;;;;;9.36;100.00;99665.50;5030592;28;20132;-82
2022/09/27 00:19:24;;;;;;;6.95;1.70;;;;;;;9.37;100.00;99659.28;5030720;28;20029;-83
2022/09/27 00:21:49;;;;;;;8.98;2.15;;;;;;;9.38;100.00;99660.94;5030517;28;20480;-83
2022/09/27 00:24:18;;;;;;;6.70;1.98;;;;;;;9.36;100.00;99662.88;5030591;28;20029;-84
2022/09/27 00:26:45;;;;;;;9.05;1.85;;;;;;;9.36;100.00;99665.50;5027139;28;20030;-83
2022/09/27 00:29:11;;;;;;;6.32;1.77;;;;;;;9.34;100.00;99671.84;4992478;28;20018;-84
2022/09/27 00:31:37;;;;;;;6.13;1.75;;;;;;;9.34;100.00;99684.97;5011593;28;20037;-84
2022/09/27 00:34:04;;;;;;;6.57;1.85;;;;;;;9.34;100.00;99698.09;5011227;28;20101;-83
2022/09/27 00:36:30;;;;;;;7.07;1.85;;;;;;;9.33;100.00;99689.38;5010731;28;20889;-81
2022/09/27 00:38:58;;;;;;;13.00;2.25;;;;;;;9.32;100.00;99687.72;5010703;28;20107;-81
2022/09/27 00:41:36;;;;;;;5.72;1.80;;;;;;;9.33;100.00;99694.63;5019962;28;20103;-82
2022/09/27 00:44:32;;;;;;;7.78;1.50;;;;;;;9.38;100.00;99687.19;4998780;28;20025;-82
2022/09/27 00:46:57;;;;;;;7.82;1.60;;;;;;;9.36;100.00;99689.13;5010012;28;20101;-82
2022/09/27 00:49:28;;;;;;;8.85;1.92;;;;;;;9.36;100.00;99681.25;5009926;28;20120;-83
2022/09/27 00:52:07;;;;;;;8.38;1.60;;;;;;;9.37;100.00;99685.53;5011894;28;20095;-83
2022/09/27 00:54:37;;;;;;;5.78;1.80;;;;;;;9.32;100.00;99682.47;5030252;28;20040;-83
2022/09/27 00:57:04;;;;;;;3.45;1.35;;;;;;;9.30;100.00;99673.09;5029492;28;20017;-83
2022/09/27 00:59:34;;;;;;;8.05;1.75;;;;;;;9.34;100.00;99680.53;5029941;28;20033;-83
2022/09/27 01:02:05;;;;;;;6.32;1.67;;;;;;;9.32;100.00;99677.22;5012828;28;20040;-84
2022/09/27 01:04:32;;;;;;;7.47;1.42;;;;;;;9.36;100.00;99683.03;5009916;28;20056;-84
2022/09/27 01:06:58;;;;;;;5.03;1.42;;;;;;;9.28;100.00;99670.59;5010415;28;20088;-84
2022/09/27 01:09:24;;;;;;;8.18;1.38;;;;;;;9.27;100.00;99671.56;5010023;28;20021;-85
2022/09/27 01:11:53;;;;;;;7.40;1.25;;;;;;;9.26;100.00;99672.53;5024922;28;20036;-84
2022/09/27 01:14:40;;;;;;;6.18;1.35;;;;;;;9.28;100.00;99680.25;5029523;28;20489;-83
2022/09/27 01:17:26;;;;;;;6.68;1.38;;;;;;;9.21;100.00;99679.97;5029244;28;20098;-84
2022/09/27 01:20:30;;;;;;;3.47;1.30;;;;;;;9.26;100.00;99677.78;5018946;28;20083;-84
2022/09/27 01:23:04;;;;;;;4.93;1.00;;;;;;;9.23;100.00;99685.91;5029964;28;20021;-84
2022/09/27 01:25:45;;;;;;;5.35;1.33;;;;;;;9.23;100.00;99690.34;5028997;28;20112;-84
2022/09/27 01:28:36;;;;;;;10.00;1.38;;;;;;;9.19;100.00;99686.28;5029157;28;20114;-84
2022/09/27 01:31:06;;;;;;;6.47;1.33;;;;;;;9.18;100.00;99690.69;5028543;28;20413;-83
2022/09/27 01:34:02;;;;;;;6.32;1.30;;;;;;;9.21;100.00;99697.50;5026507;28;20083;-84
2022/09/27 01:37:06;;;;;;;5.10;1.20;;;;;;;9.19;100.00;99700.22;5009423;28;20025;-84
2022/09/27 01:39:35;;;;;;;6.05;1.20;;;;;;;9.12;100.00;99704.34;5009268;28;20474;-84
2022/09/27 01:42:13;;;;;;;4.35;1.02;;;;;;;9.11;100.00;99700.06;5026398;28;20037;-84
2022/09/27 01:44:57;;;;;;;6.68;1.23;;;;;;;9.08;100.00;99700.34;5011188;28;20071;-84
2022/09/27 01:47:32;;;;;;;5.18;1.48;;;;;;;9.06;100.00;99702.25;5029029;28;20057;-84
2022/09/27 01:50:34;;;;;;;6.63;1.40;;;;;;;9.08;100.00;99702.97;5008678;28;20030;-83
2022/09/27 01:53:05;;;;;;;7.18;1.25;;;;;;;8.95;100.00;99707.59;4998337;28;20100;-84
2022/09/27 01:55:36;;;;;;;8.00;1.27;;;;;;;8.94;100.00;99721.69;5009734;28;20030;-85
2022/09/27 01:58:20;;;;;;;4.75;1.13;;;;;;;8.95;100.00;99725.97;4992152;28;20026;-84
2022/09/27 02:00:49;;;;;;;5.03;1.17;;;;;;;8.90;100.00;99712.41;5009474;28;20033;-84
2022/09/27 02:03:25;;;;;;;6.57;1.20;;;;;;;8.87;100.00;99703.03;5009316;28;20542;-85
2022/09/27 02:05:57;;;;;;;7.22;1.27;;;;;;;8.87;100.00;99703.03;5009448;28;20034;-84
2022/09/27 02:08:34;;;;;;;6.78;1.23;;;;;;;8.84;100.00;99692.78;4997327;28;20040;-84
2022/09/27 02:11:04;;;;;;;4.85;0.85;;;;;;;8.84;100.00;99712.94;5027858;28;20029;-84
2022/09/27 02:14:03;;;;;;;4.63;1.00;;;;;;;8.86;100.00;99717.09;5028469;28;20501;-84
2022/09/27 02:16:47;;;;;;;10.15;1.40;;;;;;;8.83;100.00;99711.28;5028620;28;20068;-84
2022/09/27 02:19:21;;;;;;;8.93;1.30;;;;;;;8.81;100.00;99711.41;5028859;28;20151;-84
2022/09/27 02:22:23;;;;;;;5.13;1.15;;;;;;;8.81;100.00;99716.66;5028915;28;20079;-84
2022/09/27 02:25:12;;;;;;;8.20;1.27;;;;;;;8.81;100.00;99713.22;5028980;28;20029;-84
2022/09/27 02:27:49;;;;;;;7.38;1.45;;;;;;;8.77;100.00;99717.84;5008911;28;20029;-87
2022/09/27 02:30:15;;;;;;;6.63;0.90;;;;;;;8.77;100.00;99708.19;5009024;28;20037;-87
2022/09/27 02:32:42;;;;;;;10.73;1.35;;;;;;;8.77;100.00;99718.69;5008272;28;20021;-87
2022/09/27 02:35:13;;;;;;;9.50;1.63;;;;;;;8.76;100.00;99726.69;4990912;28;20076;-84
2022/09/27 02:37:39;;;;;;;5.90;1.20;;;;;;;8.75;100.00;99725.84;5009675;28;20076;-84
2022/09/27 02:40:05;;;;;;;8.30;1.25;;;;;;;8.74;100.00;99734.69;5021815;28;20437;-85
2022/09/27 02:42:32;;;;;;;4.18;1.00;;;;;;;8.70;100.00;99735.91;5019918;28;20482;-85
2022/09/27 02:44:58;;;;;;;6.00;1.27;;;;;;;8.65;100.00;99724.97;5008189;28;20109;-84
2022/09/27 02:47:35;;;;;;;3.85;1.00;;;;;;;8.60;100.00;99724.53;5008830;28;20109;-84
2022/09/27 02:50:06;;;;;;;4.97;1.17;;;;;;;8.55;100.00;99716.22;5008338;28;20029;-85
2022/09/27 02:52:37;;;;;;;5.70;1.20;;;;;;;8.52;100.00;99713.84;5009616;28;20040;-85
2022/09/27 02:55:28;;;;;;;5.20;1.17;;;;;;;8.50;100.00;99715.78;5008535;28;20022;-84
2022/09/27 02:58:20;;;;;;;8.15;1.38;;;;;;;8.45;100.00;99725.81;5009661;28;20462;-85
2022/09/27 03:01:06;;;;;;;6.20;1.33;;;;;;;8.45;100.00;99720.56;5014630;28;20474;-85
2022/09/27 03:03:46;;;;;;;6.53;1.35;;;;;;;8.44;100.00;99722.38;5011044;28;20034;-85
2022/09/27 03:06:17;;;;;;;6.05;1.58;;;;;;;8.40;100.00;99714.84;5012260;28;20113;-85
2022/09/27 03:08:43;;;;;;;6.80;1.58;;;;;;;8.40;100.00;99709.63;5016158;28;20029;-85
2022/09/27 03:11:08;;;;;;;9.77;1.60;;;;;;;8.40;100.00;99717.47;5031756;28;20052;-85
2022/09/27 03:13:37;;;;;;;7.97;1.17;;;;;;;8.37;100.00;99704.63;5032035;28;20481;-85
2022/09/27 03:16:03;;;;;;;6.20;1.27;;;;;;;8.35;100.00;99714.41;5031495;28;20092;-86
2022/09/27 03:18:29;;;;;;;7.20;1.60;;;;;;;8.35;100.00;99711.78;5013694;28;20095;-86
2022/09/27 03:20:54;;;;;;;5.68;1.65;;;;;;;8.33;100.00;99716.28;5032287;28;20485;-85
2022/09/27 03:23:20;;;;;;;8.27;1.60;;;;;;;8.29;100.00;99717.50;5030944;28;20847;-86
2022/09/27 03:25:45;;;;;;;11.80;2.15;;;;;;;8.29;100.00;99720.13;5031909;28;20767;-84
2022/09/27 03:28:10;;;;;;;7.68;1.42;;;;;;;8.29;100.00;99728.00;5031548;28;20044;-85
2022/09/27 03:30:36;;;;;;;6.60;1.67;;;;;;;8.26;100.00;99723.00;5031106;28;20040;-87
2022/09/27 03:33:02;;;;;;;7.07;1.30;;;;;;;8.26;100.00;99730.88;5031628;28;20022;-84
2022/09/27 03:35:27;;;;;;;9.77;1.65;;;;;;;8.29;100.00;99725.38;5008274;28;20107;-86
2022/09/27 03:37:52;;;;;;;8.88;1.80;;;;;;;8.28;100.00;99726.31;5031531;28;20414;-85
2022/09/27 03:40:18;;;;;;;8.60;1.90;;;;;;;8.29;100.00;99730.63;5031325;28;20082;-85
2022/09/27 03:42:43;;;;;;;10.00;2.20;;;;;;;8.30;100.00;99729.66;5032166;28;20029;-85
2022/09/27 03:45:12;;;;;;;9.35;2.08;;;;;;;8.31;100.00;99747.88;5012475;28;20053;-87
2022/09/27 03:47:41;;;;;;;5.50;1.40;;;;;;;8.32;100.00;99740.84;5031862;28;20541;-85
2022/09/27 03:50:08;;;;;;;8.73;1.67;;;;;;;8.32;100.00;99749.53;5013810;28;20021;-85
2022/09/27 03:52:34;;;;;;;8.73;1.70;;;;;;;8.36;100.00;99752.75;5026049;28;20367;-85
2022/09/27 03:55:00;;;;;;;7.43;1.90;;;;;;;8.38;100.00;99758.72;5012352;28;20094;-82
2022/09/27 03:57:25;;;;;;;8.77;1.85;;;;;;;8.38;100.00;99772.66;5011641;28;20034;-82
2022/09/27 03:59:50;;;;;;;9.27;1.58;;;;;;;8.38;100.00;99779.69;5011513;28;20026;-80
2022/09/27 04:02:16;;;;;;;8.95;1.60;;;;;;;8.39;100.00;99781.34;5011323;28;20702;-80
2022/09/27 04:04:41;;;;;;;11.05;1.48;;;;;;;8.37;100.00;99770.97;5012001;28;20030;-81
2022/09/27 04:07:08;;;;;;;8.93;1.70;;;;;;;8.38;100.00;99779.69;4992954;28;20026;-81
2022/09/27 04:09:34;;;;;;;10.15;1.48;;;;;;;8.37;100.00;99778.84;5017269;28;20075;-80
2022/09/27 04:12:00;;;;;;;6.10;1.40;;;;;;;8.33;100.00;99781.81;5011414;28;20022;-81
2022/09/27 04:14:25;;;;;;;6.60;1.10;;;;;;;8.34;100.00;99767.78;5009612;28;20156;-81
2022/09/27 04:16:51;;;;;;;5.65;1.52;;;;;;;8.34;100.00;99773.84;5011707;28;20489;-80
2022/09/27 04:19:16;;;;;;;5.63;0.90;;;;;;;8.30;100.00;99766.34;5013176;28;20513;-81
2022/09/27 04:21:42;;;;;;;3.35;0.95;;;;;;;8.27;100.00;99766.59;5031199;28;20021;-81
2022/09/27 04:24:07;;;;;;;6.43;1.33;;;;;;;8.26;100.00;99759.69;5030806;28;20025;-81
2022/09/27 04:26:32;;;;;;;4.28;1.08;;;;;;;8.28;100.00;99752.53;5028761;28;20447;-80
2022/09/27 04:28:58;;;;;;;6.63;1.27;;;;;;;8.26;100.00;99754.44;5015340;28;20026;-80
2022/09/27 04:31:23;;;;;;;6.38;0.90;;;;;;;8.24;100.00;99756.38;5030609;28;20049;-81
2022/09/27 04:33:48;;;;;;;2.33;0.70;;;;;;;8.25;100.00;99747.53;5030190;28;20029;-80
2022/09/27 04:36:25;;;;;;;4.32;0.95;;;;;;;8.23;100.00;99749.47;5011966;28;20089;-81
2022/09/27 04:38:59;;;;;;;4.13;0.90;;;;;;;8.20;100.00;99745.31;5030465;28;20060;-82
2022/09/27 04:41:25;;;;;;;6.50;1.00;;;;;;;8.19;100.00;99743.66;5029814;28;20025;-84
2022/09/27 04:43:51;;;;;;;4.03;0.90;;;;;;;8.18;100.00;99747.22;5011644;28;20103;-83
2022/09/27 04:46:17;;;;;;;5.38;1.20;;;;;;;8.20;100.00;99749.72;5029923;28;20029;-83
2022/09/27 04:48:42;;;;;;;4.90;1.13;;;;;;;8.16;100.00;99749.97;5029475;28;20033;-83
2022/09/27 04:51:08;;;;;;;4.28;0.80;;;;;;;8.18;100.00;99748.06;5030151;28;20517;-83
2022/09/27 04:53:34;;;;;;;2.53;0.73;;;;;;;8.15;100.00;99748.31;5030370;28;20095;-83
2022/09/27 04:56:05;;;;;;;6.22;1.17;;;;;;;8.15;100.00;99755.34;5030307;28;20021;-84
2022/09/27 04:58:32;;;;;;;6.15;1.00;;;;;;;8.14;100.00;99761.53;5030547;28;20052;-84
2022/09/27 05:00:58;;;;;;;5.30;1.00;;;;;;;8.12;100.00;99766.06;5018192;28;20112;-83
2022/09/27 05:03:23;;;;;;;3.65;1.00;;;;;;;8.14;100.00;99770.22;5029556;28;20298;-84
2022/09/27 05:05:49;;;;;;;3.40;0.88;;;;;;;8.14;100.00;99778.09;5030853;28;20037;-84
2022/09/27 05:08:14;;;;;;;3.90;0.90;;;;;;;8.12;100.00;99790.47;5029942;28;20294;-83
2022/09/27 05:10:39;;;;;;;8.98;1.30;;;;;;;8.15;100.00;99782.38;5030111;28;20056;-83
2022/09/27 05:13:05;;;;;;;6.60;1.20;;;;;;;8.13;100.00;99786.91;5029739;28;20114;-82
2022/09/27 05:15:31;;;;;;;3.63;0.75;;;;;;;8.11;100.00;99787.97;5028044;28;20096;-82
2022/09/27 05:17:57;;;;;;;2.88;0.90;;;;;;;8.12;100.00;99779.16;5007681;28;20026;-81
2022/09/27 05:20:24;;;;;;;3.92;0.80;;;;;;;8.13;100.00;99783.44;5010148;28;20025;-81
2022/09/27 05:22:49;;;;;;;2.60;0.80;;;;;;;8.14;100.00;99783.31;5009454;28;20030;-81
2022/09/27 05:25:15;;;;;;;2.60;0.73;;;;;;;8.09;100.00;99774.19;5024266;28;20096;-81
2022/09/27 05:27:41;;;;;;;3.67;0.75;;;;;;;8.09;100.00;99769.75;5008145;28;20088;-81
2022/09/27 05:30:07;;;;;;;3.15;0.90;;;;;;;8.11;100.00;99775.72;5008901;28;20028;-83
2022/09/27 05:32:33;;;;;;;2.10;0.50;;;;;;;8.09;100.00;99775.00;5006241;28;20034;-82
2022/09/27 05:34:59;;;;;;;4.10;0.75;;;;;;;8.11;100.00;99780.94;5005379;28;20105;-80
2022/09/27 05:37:24;;;;;;;4.15;0.82;;;;;;;8.09;100.00;99780.25;4989237;28;20109;-83
2022/09/27 05:39:50;;;;;;;4.72;1.08;;;;;;;8.09;100.00;99779.41;4988914;28;20508;-83
2022/09/27 05:42:16;;;;;;;3.33;1.02;;;;;;;8.09;100.00;99782.88;4989131;28;20540;-83
2022/09/27 05:44:47;;;;;;;2.05;0.52;;;;;;;8.07;100.00;99782.16;4989775;28;20022;-83
2022/09/27 05:47:13;;;;;;;4.25;0.90;;;;;;;8.05;100.00;99789.31;4989811;28;20061;-84
2022/09/27 05:49:39;;;;;;;5.75;0.95;;;;;;;8.05;100.00;99788.47;4994335;28;20535;-84
2022/09/27 05:52:05;;;;;;;3.65;1.02;;;;;;;8.04;100.00;99787.66;4989099;28;20034;-83
2022/09/27 05:54:30;;;;;;;2.17;0.90;;;;;;;8.09;100.00;99785.47;5007319;28;20044;-84
2022/09/27 05:56:59;;;;;;;4.68;1.02;;;;;;;8.05;100.00;99791.94;5010038;28;20029;-85
2022/09/27 05:59:26;;;;;;;2.90;0.88;;;;;;;8.08;100.00;99788.22;5008947;28;20421;-85
2022/09/27 06:01:51;;;;;;;3.40;1.10;;;;;;;8.10;100.00;99787.16;5008683;28;20041;-84
2022/09/27 06:04:17;;;;;;;2.38;0.90;;;;;;;8.07;100.00;99797.88;5009329;28;20122;-85
2022/09/27 06:06:43;;;;;;;4.30;0.93;;;;;;;8.13;100.00;99797.38;5009189;28;20030;-85
2022/09/27 06:09:13;;;;;;;6.55;1.10;;;;;;;8.10;100.00;99807.28;5009751;28;20029;-85
2022/09/27 06:11:39;;;;;;;6.40;1.00;;;;;;;8.10;100.00;99800.25;5009110;28;20037;-85
2022/09/27 06:14:05;;;;;;;3.67;0.90;;;;;;;8.06;100.00;99801.44;5008735;28;20355;-85
2022/09/27 06:16:30;;;;;;;3.50;0.93;;;;;;;8.10;100.00;99796.78;5018692;28;20048;-83
2022/09/27 06:18:58;;;;;;;3.30;0.90;;;;;;;8.05;100.00;99794.56;5028767;28;20030;-84
2022/09/27 06:21:24;;;;;;;3.05;0.80;;;;;;;8.04;100.00;99792.88;5029238;28;20034;-85
2022/09/27 06:23:49;;;;;;;3.25;0.90;;;;;;;8.05;100.00;99789.31;5029338;28;20032;-85
2022/09/27 06:26:15;;;;;;;5.70;1.20;;;;;;;8.05;100.00;99791.09;5028169;28;20171;-86
2022/09/27 06:28:40;;;;;;;4.85;1.25;;;;;;;8.04;100.00;99795.50;5029328;28;20025;-85
2022/09/27 06:31:10;;;;;;;3.15;1.10;;;;;;;8.08;100.00;99794.31;5029039;28;20025;-85
2022/09/27 06:33:36;;;;;;;4.35;1.45;;;;;;;8.05;100.00;99791.94;5010911;28;20032;-86
2022/09/27 06:36:06;;;;;;;7.85;1.95;;;;;;;8.06;100.00;99796.22;5029273;28;20401;-86
2022/09/27 06:38:31;;;;;;;3.95;1.35;;;;;;;8.02;100.00;99796.59;5031648;28;20032;-86
2022/09/27 06:41:01;;;;;;;6.03;1.70;;;;;;;8.02;100.00;99800.03;5031887;28;20021;-86
2022/09/27 06:43:26;;;;;;;3.15;1.55;;;;;;;8.04;100.00;99803.38;5032965;28;20052;-85
2022/09/27 06:45:52;;;;;;;4.55;1.80;;;;;;;8.01;100.00;99803.63;5033221;28;20026;-84
2022/09/27 06:48:18;;;;;;;4.93;1.77;;;;;;;7.98;100.00;99803.00;5026391;28;20397;-83
2022/09/27 06:50:45;;;;;;;4.15;1.80;;;;;;;8.01;100.00;99801.00;5053079;28;20025;-83
2022/09/27 06:53:12;;;;;;;7.07;2.15;;;;;;;8.00;100.00;99790.59;5041809;28;20067;-83
2022/09/27 06:55:38;;;;;;;4.43;2.00;;;;;;;7.99;100.00;99789.78;5032150;28;20176;-83
2022/09/27 07:00:50;;;;;;;3.08;2.22;;;;;;;8.09;100.00;99798.59;5033122;28;20094;-84
2022/09/27 07:03:16;;;;;;;4.28;2.22;;;;;;;8.10;100.00;99794.19;5021743;28;20022;-88
2022/09/27 07:05:41;;;;;;;6.78;2.05;;;;;;;8.12;100.00;99800.94;5032729;28;20040;-86
2022/09/27 07:08:10;;;;;;;3.08;2.15;;;;;;;8.17;100.00;99801.41;5031338;28;20018;-84
2022/09/27 07:10:37;;;;;;;7.78;2.67;;;;;;;8.21;100.00;99798.53;5013666;28;20048;-84
2022/09/27 07:13:04;;;;;;;5.35;2.38;;;;;;;8.17;100.00;99801.41;5023768;28;20018;-85
2022/09/27 07:15:31;;;;;;;6.00;2.60;;;;;;;8.26;100.00;99806.84;5013675;28;20104;-86
2022/09/27 07:17:57;;;;;;;3.83;2.45;;;;;;;8.26;100.00;99806.84;5012474;28;20030;-86
2022/09/27 07:20:23;;;;;;;4.95;2.40;;;;;;;8.36;100.00;99803.38;5024422;28;20513;-86
2022/09/27 07:22:48;;;;;;;4.95;2.33;;;;;;;8.42;100.00;99807.31;5030640;28;20013;-87
2022/09/27 07:25:14;;;;;;;5.68;2.55;;;;;;;8.43;100.00;99803.75;5031376;28;20028;-87
2022/09/27 07:27:40;;;;;;;4.47;2.38;;;;;;;8.46;100.00;99808.75;5031667;28;20021;-87
2022/09/27 07:30:07;;;;;;;5.45;2.28;;;;;;;8.47;100.00;99818.25;5031000;28;20500;-86
2022/09/27 07:32:35;;;;;;;5.18;2.80;;;;;;;8.47;100.00;99816.47;5032332;28;20039;-88
2022/09/27 07:35:02;;;;;;;4.75;2.80;;;;;;;8.48;100.00;99817.31;5032538;28;20032;-87
2022/09/27 07:37:30;;;;;;;8.98;3.30;;;;;;;8.49;100.00;99818.97;5031385;28;20100;-86
2022/09/27 07:39:56;;;;;;;8.10;3.50;;;;;;;8.53;100.00;99817.75;5031730;28;20504;-87
2022/09/27 07:42:21;;;;;;;6.13;3.42;;;;;;;8.49;100.00;99813.72;5031980;28;20056;-87
2022/09/27 07:44:47;;;;;;;5.60;3.65;;;;;;;8.52;100.00;99818.72;5031779;28;20444;-86
2022/09/27 07:47:12;;;;;;;7.53;3.50;;;;;;;8.55;100.00;99817.63;5031549;28;20021;-86
2022/09/27 07:49:37;;;;;;;5.75;4.25;;;;;;;8.54;100.00;99814.19;5031241;28;20045;-88
2022/09/27 07:52:03;;;;;;;7.95;4.22;;;;;;;8.54;100.00;99818.59;5013936;28;20449;-87
2022/09/27 07:54:28;;;;;;;7.05;4.50;;;;;;;8.53;100.00;99820.38;5014319;28;20040;-87
2022/09/27 07:56:54;;;;;;;6.82;4.50;;;;;;;8.56;100.00;99824.53;5032072;28;20028;-88
2022/09/27 07:59:20;;;;;;;7.15;5.00;;;;;;;8.55;100.00;99822.88;5030837;28;20060;-86
2022/09/27 08:01:45;;;;;;;7.50;5.15;;;;;;;8.61;100.00;99833.69;5031914;28;20025;-85
2022/09/27 08:04:10;;;;;;;8.52;5.47;;;;;;;8.61;100.00;99831.06;5031316;28;20033;-85
2022/09/27 08:06:36;;;;;;;9.63;5.60;;;;;;;8.67;100.00;99840.22;5030967;28;20083;-86
2022/09/27 08:09:05;;;;;;;10.85;5.57;;;;;;;8.68;100.00;99844.50;5031064;28;20032;-85
2022/09/27 08:11:30;;;;;;;7.43;5.45;;;;;;;8.70;100.00;99846.03;5030237;28;20029;-87
2022/09/27 08:13:56;;;;;;;10.77;5.85;;;;;;;8.70;100.00;99845.22;5031158;28;20029;-88
2022/09/27 08:16:21;;;;;;;8.73;5.95;;;;;;;8.74;100.00;99844.81;5031352;28;20421;-87
2022/09/27 08:18:47;;;;;;;7.45;6.35;;;;;;;8.75;100.00;99841.25;5030343;28;20128;-85
2022/09/27 08:21:12;;;;;;;7.93;6.40;;;;;;;8.79;100.00;99842.66;5029947;28;20033;-87
2022/09/27 08:23:38;;;;;;;10.27;7.65;;;;;;;8.84;100.00;99838.84;5030999;28;20029;-87
2022/09/27 08:26:04;;;;;;;11.38;7.65;;;;;;;8.87;100.00;99838.59;5031156;28;20028;-87
2022/09/27 08:28:30;;;;;;;8.75;7.47;;;;;;;8.89;100.00;99847.16;5030974;28;20071;-88
2022/09/27 08:30:58;;;;;;;10.32;8.52;;;;;;;8.93;100.00;99845.94;5009651;28;20072;-87
2022/09/27 08:33:24;;;;;;;11.65;8.90;;;;;;;8.94;100.00;99840.56;5000249;28;20847;-88
2022/09/27 08:35:50;;;;;;;15.57;9.45;;;;;;;8.95;100.00;99841.41;5012246;28;20462;-87
2022/09/27 08:38:15;;;;;;;10.35;9.15;;;;;;;8.99;100.00;99835.75;5029204;28;20037;-87
2022/09/27 08:41:04;;;;;;;11.85;10.20;;;;;;;9.02;100.00;99832.88;5029882;28;20028;-82
2022/09/27 08:43:36;;;;;;;11.40;10.20;;;;;;;9.03;100.00;99831.09;5030565;28;20033;-84
2022/09/27 08:46:23;;;;;;;11.88;10.68;;;;;;;9.07;100.00;99835.94;5030696;28;20017;-83
2022/09/27 08:48:53;;;;;;;12.32;11.13;;;;;;;9.09;100.00;99838.44;5029461;28;20079;-83
2022/09/27 08:51:24;;;;;;;13.43;12.13;;;;;;;9.12;100.00;99840.81;5029757;28;20021;-83
2022/09/27 08:53:56;;;;;;;13.82;12.57;;;;;;;9.13;100.00;99829.34;5029839;28;20025;-83
2022/09/27 08:56:22;;;;;;;14.48;12.98;;;;;;;9.19;100.00;99834.06;5029637;28;20013;-82
2022/09/27 08:58:58;;;;;;;15.20;13.32;;;;;;;9.20;100.00;99835.75;5030166;28;20021;-83
2022/09/27 09:01:25;;;;;;;15.00;12.95;;;;;;;9.23;100.00;99840.75;5028849;28;20173;-82
2022/09/27 09:03:56;;;;;;;15.63;14.00;;;;;;;9.27;100.00;99836.91;5017130;28;20021;-81
2022/09/27 09:06:27;;;;;;;15.32;13.85;;;;;;;9.28;100.00;99843.81;5029749;28;20044;-82
2022/09/27 09:09:11;;;;;;;15.90;13.13;;;;;;;9.33;100.00;99836.38;5028897;28;20437;-82
2022/09/27 09:14:41;;;;;;;14.05;12.55;;;;;;;9.40;100.00;99848.03;5028819;28;20100;-82
2022/09/27 09:17:28;;;;;;;13.57;12.20;;;;;;;9.42;100.00;99846.09;5029214;28;20060;-83
2022/09/27 09:20:11;;;;;;;13.82;12.35;;;;;;;9.46;100.00;99853.72;5029503;28;20649;-82
2022/09/27 09:22:42;;;;;;;;;;;;;;;9.56;100.00;99851.97;5028456;28;20345;-83
2022/09/27 09:25:32;;;;;;;16.58;13.60;;;;;;;9.54;100.00;99856.50;5028787;28;19923;-83
2022/09/27 09:28:16;;;;;;;15.48;13.88;;;;;;;9.59;100.00;99856.94;5027930;28;20378;-82
2022/09/27 09:30:53;;;;;;;17.17;15.38;;;;;;;9.53;100.00;99857.47;5022240;28;20036;-82
2022/09/27 09:33:22;;;;;;;17.13;15.43;;;;;;;9.55;100.00;99860.78;5025607;28;20032;-82
2022/09/27 09:36:08;;;;;;;18.15;16.45;;;;;;;9.56;100.00;99857.22;5011060;28;20437;-82
2022/09/27 09:38:45;;;;;;;20.63;17.27;;;;;;;9.53;100.00;99853.06;5026995;28;20021;-82
2022/09/27 09:41:26;;;;;;;18.30;16.40;;;;;;;9.55;100.00;99851.13;5026575;28;20037;-82
2022/09/27 09:44:05;;;;;;;20.08;16.50;;;;;;;9.52;100.00;99855.81;5028684;28;20040;-81
2022/09/27 09:46:46;;;;;;;18.05;16.30;;;;;;;9.52;100.00;99861.88;5029215;28;20493;-81
2022/09/27 09:49:34;;;;;;;17.42;15.07;;;;;;;9.55;100.00;99860.78;5028820;28;20033;-81
2022/09/27 09:52:12;;;;;;;13.82;12.18;;;;;;;9.48;100.00;99870.16;5012970;28;20083;-79
2022/09/27 09:54:50;;;;;;;11.65;10.15;;;;;;;9.41;100.00;99865.44;5029206;28;20032;-80
2022/09/27 09:57:33;;;;;;;10.57;9.35;;;;;;;9.42;100.00;99867.09;5022673;28;20033;-80
2022/09/27 10:00:04;;;;;;;13.27;9.15;;;;;;;9.43;100.00;99863.50;5024839;28;20395;-80
2022/09/27 10:02:33;;;;;;;11.05;8.07;;;;;;;9.45;100.00;99870.44;5028825;28;20323;-80
2022/09/27 10:05:00;;;;;;;8.18;6.35;;;;;;;9.48;100.00;99862.28;5028310;28;20095;-79
2022/09/27 10:07:27;;;;;;;5.72;4.53;;;;;;;9.39;100.00;99864.75;5028455;28;20033;-80
2022/09/27 10:09:55;;;;;;;7.88;4.30;;;;;;;9.34;100.00;99869.56;5028972;28;20032;-80
2022/09/27 10:12:21;;;;;;;4.15;2.95;;;;;;;9.27;100.00;99864.94;5030666;28;20038;-79
2022/09/27 10:14:49;;;;;;;5.68;2.83;;;;;;;9.28;100.00;99866.63;5035385;28;20025;-79
2022/09/27 10:17:19;;;;;;;6.95;2.75;;;;;;;9.19;100.00;99872.59;5017152;28;20520;-78
2022/09/27 10:19:47;;;;;;;4.38;2.15;;;;;;;9.22;100.00;99865.34;5017184;28;20028;-78
2022/09/27 10:22:37;;;;;;;3.30;1.90;;;;;;;9.14;100.00;99861.66;5034997;28;20049;-78
2022/09/27 10:25:07;;;;;;;5.57;1.92;;;;;;;9.09;100.00;99875.19;5034534;28;20033;-78
2022/09/27 10:27:45;;;;;;;5.20;1.30;;;;;;;9.01;100.00;99882.88;5033046;28;20025;-78
2022/09/27 10:30:30;;;;;;;3.10;1.30;;;;;;;9.00;100.00;99874.16;5027292;28;20033;-79
2022/09/27 10:33:01;;;;;;;2.15;0.93;;;;;;;8.94;100.00;99874.66;5029887;28;20026;-78
2022/09/27 10:35:36;;;;;;;2.47;1.00;;;;;;;8.93;100.00;99880.03;5009626;28;20068;-79
2022/09/27 10:38:20;;;;;;;4.60;0.80;;;;;;;8.93;100.00;99880.03;5027311;28;20021;-78
2022/09/27 10:40:47;;;;;;;2.10;0.80;;;;;;;8.94;100.00;99884.34;5028092;28;20482;-78
2022/09/27 10:43:31;;;;;;;3.92;0.80;;;;;;;8.95;100.00;99886.81;5013694;28;20044;-79
2022/09/27 10:46:06;;;;;;;2.40;0.90;;;;;;;8.93;100.00;99887.91;5026888;28;20021;-79
2022/09/27 10:48:31;;;;;;;3.58;1.00;;;;;;;8.93;100.00;99880.88;5030700;28;20029;-79
2022/09/27 10:51:00;;;;;;;3.05;1.10;;;;;;;8.97;100.00;99878.84;4998513;28;20044;-79
2022/09/27 10:53:28;;;;;;;4.75;0.95;;;;;;;9.03;100.00;99886.19;5029988;28;20037;-79
2022/09/27 10:55:54;;;;;;;2.72;1.20;;;;;;;9.09;100.00;99875.19;5034433;28;20039;-79
2022/09/27 10:58:35;;;;;;;4.93;1.45;;;;;;;9.14;100.00;99886.13;5015795;28;20059;-79
2022/09/27 11:01:02;;;;;;;3.00;0.80;;;;;;;9.10;100.00;99882.91;5034254;28;20076;-81
2022/09/27 11:03:35;;;;;;;2.28;0.85;;;;;;;9.05;100.00;99884.28;5034188;28;20029;-79
2022/09/27 11:06:17;;;;;;;;;;;;;;;9.19;100.00;99880.47;5030729;28;20056;-79
2022/09/27 11:08:42;;;;;;;1.90;0.80;;;;;;;9.02;100.00;99876.66;5032676;28;19995;-80
2022/09/27 11:11:13;;;;;;;1.95;0.60;;;;;;;9.08;100.00;99869.09;5034466;28;20104;-80
2022/09/27 11:13:39;;;;;;;3.55;0.93;;;;;;;9.04;100.00;99872.94;5034402;28;20057;-79
2022/09/27 11:16:40;;;;;;;2.83;0.88;;;;;;;9.20;100.00;99866.41;5033862;28;20061;-79
2022/09/27 11:19:33;;;;;;;2.25;0.77;;;;;;;9.25;100.00;99854.59;5025986;28;20410;-79
2022/09/27 11:22:07;;;;;;;;;;;;;;;9.45;100.00;99850.25;5012650;28;20402;-79
2022/09/27 11:24:40;;;;;;;1.58;0.88;;;;;;;9.49;100.00;99845.56;5012594;28;19991;-81
2022/09/27 11:27:29;;;;;;;1.60;0.70;;;;;;;9.57;100.00;99851.81;5013658;28;20030;-80
2022/09/27 11:30:08;;;;;;;4.78;0.80;;;;;;;9.68;100.00;99841.25;5011729;28;20551;-80
2022/09/27 11:32:56;;;;;;;2.35;0.80;;;;;;;9.89;100.00;99833.28;5013315;28;20029;-83
2022/09/27 11:35:40;;;;;;;1.50;0.70;;;;;;;10.01;100.00;99842.75;5011248;28;20033;-81
2022/09/27 11:38:29;;;;;;;2.88;0.80;;;;;;;10.11;100.00;99841.94;5016055;28;20044;-81
2022/09/27 11:41:25;;;;;;;1.60;0.60;;;;;;;10.27;100.00;99848.34;5014286;28;20131;-82
2022/09/27 11:44:03;;;;;;;1.52;0.60;;;;;;;10.40;100.00;99837.56;5031264;28;20029;-82
2022/09/27 11:46:34;;;;;;;3.88;0.80;;;;;;;10.57;100.00;99847.41;5021409;28;20026;-82
2022/09/27 11:49:15;;;;;;;3.05;0.90;;;;;;;10.64;100.00;99839.81;5013551;28;20028;-82
2022/09/27 11:52:02;;;;;;;2.90;0.80;;;;;;;10.73;100.00;99846.84;5013481;28;20026;-83
2022/09/27 11:54:53;;;;;;;1.50;0.63;;;;;;;10.79;99.59;99850.72;5031319;28;20175;-82
2022/09/27 11:57:32;;;;;;;2.65;0.90;;;;;;;10.90;99.72;99842.72;5025015;28;20061;-83